createdAt,value
2018-05-03T00:00:32.387Z,94970
2018-05-03T00:03:02.983Z,94966
2018-05-03T00:05:33.656Z,94977
2018-05-03T00:08:04.304Z,94977
2018-05-03T00:10:34.980Z,94959
2018-05-03T00:13:05.698Z,94943
2018-05-03T00:15:36.347Z,94940
2018-05-03T00:18:06.893Z,94936
2018-05-03T00:20:37.496Z,94948
2018-05-03T00:23:08.186Z,94955
2018-05-03T00:25:38.871Z,94961
2018-05-03T00:28:09.483Z,94961
2018-05-03T00:30:40.283Z,94958
2018-05-03T00:33:11.149Z,94960
2018-05-03T00:35:41.696Z,94956
2018-05-03T00:38:12.519Z,94943
2018-05-03T00:40:44.693Z,94946
2018-05-03T00:43:15.651Z,94951
2018-05-03T00:45:46.204Z,94949
2018-05-03T00:48:16.804Z,94945
2018-05-03T00:50:47.544Z,94949
2018-05-03T00:53:18.083Z,94944
2018-05-03T00:55:48.658Z,94942
2018-05-03T00:58:19.357Z,94941
2018-05-03T01:07:25.302Z,94951
2018-05-03T01:09:55.994Z,94955
2018-05-03T01:12:26.552Z,94957
2018-05-03T01:14:57.040Z,94963
2018-05-03T01:17:27.612Z,94966
2018-05-03T01:19:58.674Z,94965
2018-05-03T01:22:29.440Z,94965
2018-05-03T01:25:00.077Z,94964
2018-05-03T01:27:30.703Z,94972
2018-05-03T01:30:01.580Z,94982
2018-05-03T01:32:32.199Z,94982
2018-05-03T01:35:11.504Z,94980
2018-05-03T01:37:42.258Z,94976
2018-05-03T01:40:12.953Z,94979
2018-05-03T01:42:43.952Z,94980
2018-05-03T01:45:14.504Z,94981
2018-05-03T01:47:45.079Z,94966
2018-05-03T01:50:15.748Z,94956
2018-05-03T01:52:46.328Z,94952
2018-05-03T01:55:16.975Z,94951
2018-05-03T01:57:47.760Z,94955
2018-05-03T02:00:18.379Z,94948
2018-05-03T02:02:48.984Z,94944
2018-05-03T02:05:19.545Z,94943
2018-05-03T02:07:50.124Z,94937
2018-05-03T02:10:20.791Z,94936
2018-05-03T02:12:51.339Z,94922
2018-05-03T02:15:21.991Z,94919
2018-05-03T02:17:52.534Z,94920
2018-05-03T02:20:23.280Z,94925
2018-05-03T02:22:53.819Z,94924
2018-05-03T02:25:24.546Z,94922
2018-05-03T02:27:55.063Z,94921
2018-05-03T02:30:25.867Z,94926
2018-05-03T02:32:56.462Z,94940
2018-05-03T02:35:27.069Z,94936
2018-05-03T02:37:57.772Z,94934
2018-05-03T02:40:28.305Z,94939
2018-05-03T02:42:59.080Z,94942
2018-05-03T02:45:29.601Z,94949
2018-05-03T02:48:00.594Z,94949
2018-05-03T02:50:31.449Z,94948
2018-05-03T02:53:01.999Z,94948
2018-05-03T02:55:32.595Z,94952
2018-05-03T02:59:15.043Z,94947
2018-05-03T03:02:54.858Z,94947
2018-05-03T03:06:41.293Z,94952
2018-05-03T03:09:17.270Z,94953
2018-05-03T03:12:52.526Z,94964
2018-05-03T03:16:38.546Z,94974
2018-05-03T03:19:49.668Z,94972
2018-05-03T03:22:35.105Z,94974
2018-05-03T03:25:16.342Z,94976
2018-05-03T03:28:01.935Z,94976
2018-05-03T03:30:47.500Z,94979
2018-05-03T03:34:27.565Z,94985
2018-05-03T03:38:16.383Z,94994
2018-05-03T03:41:56.603Z,95015
2018-05-03T03:44:38.187Z,95023
2018-05-03T03:47:08.814Z,95022
2018-05-03T03:49:39.482Z,95022
2018-05-03T03:52:09.968Z,95020
2018-05-03T03:54:40.527Z,95031
2018-05-03T03:57:11.118Z,95034
2018-05-03T03:59:41.877Z,95043
2018-05-03T04:02:12.508Z,95041
2018-05-03T04:04:43.513Z,95041
2018-05-03T04:07:14.109Z,95037
2018-05-03T04:09:44.649Z,95048
2018-05-03T04:12:15.444Z,95050
2018-05-03T04:14:46.033Z,95046
2018-05-03T04:17:16.607Z,95045
2018-05-03T04:20:12.939Z,95042
2018-05-03T04:23:07.015Z,95041
2018-05-03T04:25:48.393Z,95040
2018-05-03T04:28:19.124Z,95044
2018-05-03T04:30:49.839Z,95051
2018-05-03T04:33:20.433Z,95055
2018-05-03T04:35:51.055Z,95050
2018-05-03T04:38:21.565Z,95055
2018-05-03T04:40:52.099Z,95057
2018-05-03T04:43:22.782Z,95052
2018-05-03T04:45:53.383Z,95051
2018-05-03T04:48:24.047Z,95052
2018-05-03T04:50:54.660Z,95064
2018-05-03T04:53:25.239Z,95062
2018-05-03T04:55:55.768Z,95064
2018-05-03T04:58:26.348Z,95067
2018-05-03T05:00:56.916Z,95067
2018-05-03T05:03:27.576Z,95066
2018-05-03T05:05:58.263Z,95069
2018-05-03T05:08:28.880Z,95062
2018-05-03T05:10:59.543Z,95062
2018-05-03T05:13:30.216Z,95062
2018-05-03T05:16:00.847Z,95062
2018-05-03T05:18:31.439Z,95056
2018-05-03T05:21:01.936Z,95054
2018-05-03T05:23:32.539Z,95055
2018-05-03T05:26:03.098Z,95052
2018-05-03T05:28:33.767Z,95059
2018-05-03T05:31:04.279Z,95061
2018-05-03T05:33:34.940Z,95054
2018-05-03T05:36:05.564Z,95050
2018-05-03T05:38:36.182Z,95051
2018-05-03T05:41:06.755Z,95046
2018-05-03T05:43:37.347Z,95052
2018-05-03T05:46:07.837Z,95054
2018-05-03T05:48:38.518Z,95048
2018-05-03T05:51:09.131Z,95048
2018-05-03T05:53:39.925Z,95047
2018-05-03T05:56:11.376Z,95053
2018-05-03T05:58:42.056Z,95053
2018-05-03T06:01:12.862Z,95061
2018-05-03T06:03:43.660Z,95064
2018-05-03T06:06:14.248Z,95070
2018-05-03T06:08:44.943Z,95066
2018-05-03T06:11:15.714Z,95071
2018-05-03T06:13:46.429Z,95069
2018-05-03T06:16:17.008Z,95073
2018-05-03T06:18:47.736Z,95075
2018-05-03T06:21:18.383Z,95073
2018-05-03T06:23:49.258Z,95070
2018-05-03T06:26:20.295Z,95079
2018-05-03T06:28:51.137Z,95084
2018-05-03T06:31:21.861Z,95087
2018-05-03T06:33:52.749Z,95094
2018-05-03T06:36:23.755Z,95096
2018-05-03T06:38:54.440Z,95097
2018-05-03T06:41:25.128Z,95099
2018-05-03T06:43:55.770Z,95104
2018-05-03T06:46:26.355Z,95107
2018-05-03T06:48:56.923Z,95108
2018-05-03T06:51:27.677Z,95105
2018-05-03T06:53:58.249Z,95108
2018-05-03T06:56:28.910Z,95118
2018-05-03T06:58:59.789Z,95122
2018-05-03T07:01:30.363Z,95119
2018-05-03T07:04:01.099Z,95120
2018-05-03T07:06:32.418Z,95127
2018-05-03T07:09:02.948Z,95140
2018-05-03T07:11:33.883Z,95141
2018-05-03T07:14:04.487Z,95146
2018-05-03T07:16:35.183Z,95150
2018-05-03T07:19:05.850Z,95156
2018-05-03T07:21:36.399Z,95161
2018-05-03T07:24:07.918Z,95169
2018-05-03T07:26:55.933Z,95176
2018-05-03T07:29:26.586Z,95179
2018-05-03T07:31:57.156Z,95186
2018-05-03T07:34:35.351Z,95193
2018-05-03T07:37:05.947Z,95190
2018-05-03T07:39:36.476Z,95200
2018-05-03T07:42:07.416Z,95204
2018-05-03T07:44:38.157Z,95212
2018-05-03T07:47:09.164Z,95213
2018-05-03T07:49:39.847Z,95219
2018-05-03T07:52:10.567Z,95225
2018-05-03T07:54:41.136Z,95236
2018-05-03T07:57:11.740Z,95240
2018-05-03T07:59:42.437Z,95250
2018-05-03T08:02:13.287Z,95247
2018-05-03T08:04:44.052Z,95241
2018-05-03T08:07:14.896Z,95242
2018-05-03T08:09:45.499Z,95243
2018-05-03T08:12:16.431Z,95252
2018-05-03T08:14:46.921Z,95245
2018-05-03T08:17:17.849Z,95240
2018-05-03T08:19:48.563Z,95242
2018-05-03T08:22:19.440Z,95249
2018-05-03T08:24:50.183Z,95254
2018-05-03T08:27:20.865Z,95260
2018-05-03T08:29:51.515Z,95263
2018-05-03T08:32:22.304Z,95260
2018-05-03T08:34:53.063Z,95274
2018-05-03T08:37:23.789Z,95276
2018-05-03T08:39:54.415Z,95277
2018-05-03T08:42:25.503Z,95281
2018-05-03T08:44:56.365Z,95288
2018-05-03T08:47:27.120Z,95292
2018-05-03T08:49:57.819Z,95294
2018-05-03T08:52:28.457Z,95292
2018-05-03T08:54:59.239Z,95297
2018-05-03T08:57:30.170Z,95294
2018-05-03T09:00:00.742Z,95299
2018-05-03T09:02:31.417Z,95305
2018-05-03T09:05:02.357Z,95310
2018-05-03T09:07:33.580Z,95303
2018-05-03T09:10:04.280Z,95302
2018-05-03T09:12:35.252Z,95299
2018-05-03T09:15:05.915Z,95296
2018-05-03T09:17:36.641Z,95301
2018-05-03T09:20:07.273Z,95299
2018-05-03T09:22:37.944Z,95302
2018-05-03T09:25:08.689Z,95300
2018-05-03T09:27:39.498Z,95298
2018-05-03T09:30:10.281Z,95291
2018-05-03T09:32:41.345Z,95297
2018-05-03T09:35:11.980Z,95304
2018-05-03T09:37:42.977Z,95302
2018-05-03T09:40:13.489Z,95299
2018-05-03T09:42:44.232Z,95305
2018-05-03T09:45:14.903Z,95298
2018-05-03T09:47:45.560Z,95302
2018-05-03T09:50:16.204Z,95308
2018-05-03T09:52:46.847Z,95307
2018-05-03T09:55:17.362Z,95300
2018-05-03T09:57:48.253Z,95301
2018-05-03T10:00:18.830Z,95304
2018-05-03T10:02:49.993Z,95304
2018-05-03T10:05:20.620Z,95310
2018-05-03T10:07:51.769Z,95308
2018-05-03T10:10:22.510Z,95312
2018-05-03T10:12:53.136Z,95317
2018-05-03T10:15:23.763Z,95321
2018-05-03T10:17:54.352Z,95335
2018-05-03T10:20:24.912Z,95326
2018-05-03T10:22:55.551Z,95331
2018-05-03T10:25:26.327Z,95325
2018-05-03T10:27:57.211Z,95327
2018-05-03T10:30:27.881Z,95330
2018-05-03T10:32:58.540Z,95333
2018-05-03T10:35:29.292Z,95335
2018-05-03T10:38:00.199Z,95335
2018-05-03T10:40:30.847Z,95330
2018-05-03T10:43:01.904Z,95329
2018-05-03T10:45:33.657Z,95331
2018-05-03T10:48:04.658Z,95334
2018-05-03T10:50:35.348Z,95335
2018-05-03T10:53:06.115Z,95335
2018-05-03T10:55:36.783Z,95331
2018-05-03T10:58:07.503Z,95334
2018-05-03T11:00:38.483Z,95331
2018-05-03T11:03:09.198Z,95337
2018-05-03T11:05:39.902Z,95327
2018-05-03T11:08:10.714Z,95329
2018-05-03T11:10:41.341Z,95325
2018-05-03T11:13:11.929Z,95320
2018-05-03T11:15:42.569Z,95324
2018-05-03T11:18:13.196Z,95323
2018-05-03T11:20:43.843Z,95321
2018-05-03T11:23:14.480Z,95330
2018-05-03T11:25:45.205Z,95330
2018-05-03T11:28:15.850Z,95336
2018-05-03T11:30:46.343Z,95330
2018-05-03T11:33:17.042Z,95331
2018-05-03T11:35:47.689Z,95330
2018-05-03T11:38:21.416Z,95332
2018-05-03T11:40:55.151Z,95329
2018-05-03T11:43:30.029Z,95336
2018-05-03T11:46:03.773Z,95341
2018-05-03T11:48:35.010Z,95336
2018-05-03T11:51:05.750Z,95330
2018-05-03T11:53:36.774Z,95334
2018-05-03T11:56:07.550Z,95342
2018-05-03T11:58:38.542Z,95340
2018-05-03T12:01:09.604Z,95338
2018-05-03T12:03:40.489Z,95338
2018-05-03T12:06:11.071Z,95342
2018-05-03T12:08:42.044Z,95341
2018-05-03T12:11:12.899Z,95345
2018-05-03T12:13:43.643Z,95350
2018-05-03T12:16:14.481Z,95353
2018-05-03T12:18:45.467Z,95351
2018-05-03T12:21:15.987Z,95352
2018-05-03T12:23:46.774Z,95348
2018-05-03T12:26:17.466Z,95344
2018-05-03T12:28:48.257Z,95346
2018-05-03T12:31:19.093Z,95348
2018-05-03T12:33:49.916Z,95347
2018-05-03T12:36:20.687Z,95344
2018-05-03T12:38:51.330Z,95342
2018-05-03T12:41:22.215Z,95348
2018-05-03T12:43:52.886Z,95334
2018-05-03T12:46:23.431Z,95339
2018-05-03T12:48:54.101Z,95335
2018-05-03T12:51:24.817Z,95321
2018-05-03T12:53:55.457Z,95323
2018-05-03T12:56:26.185Z,95322
2018-05-03T12:58:56.812Z,95325
2018-05-03T13:01:27.408Z,95320
2018-05-03T13:03:58.116Z,95319
2018-05-03T13:06:28.785Z,95318
2018-05-03T13:08:59.400Z,95322
2018-05-03T13:11:30.009Z,95316
2018-05-03T13:14:00.704Z,95315
2018-05-03T13:16:31.417Z,95321
2018-05-03T13:19:02.154Z,95308
2018-05-03T13:21:32.820Z,95316
2018-05-03T13:24:03.500Z,95311
2018-05-03T13:26:34.596Z,95316
2018-05-03T13:29:05.194Z,95315
2018-05-03T13:31:39.172Z,95311
2018-05-03T13:34:09.819Z,95310
2018-05-03T13:36:40.725Z,95306
2018-05-03T13:39:16.577Z,95313
2018-05-03T13:41:53.007Z,95312
2018-05-03T13:44:25.632Z,95318
2018-05-03T13:46:56.315Z,95309
2018-05-03T13:49:27.215Z,95319
2018-05-03T13:51:59.283Z,95317
2018-05-03T13:54:32.432Z,95316
2018-05-03T13:57:03.203Z,95318
2018-05-03T13:59:33.889Z,95317
2018-05-03T14:02:04.597Z,95321
2018-05-03T14:04:35.233Z,95322
2018-05-03T14:07:05.921Z,95322
2018-05-03T14:09:36.560Z,95331
2018-05-03T14:12:07.342Z,95334
2018-05-03T14:14:37.928Z,95326
2018-05-03T14:17:08.590Z,95329
2018-05-03T14:19:39.336Z,95330
2018-05-03T14:22:09.904Z,95326
2018-05-03T14:24:40.600Z,95326
2018-05-03T14:27:11.347Z,95333
2018-05-03T14:29:42.040Z,95333
2018-05-03T14:32:14.704Z,95337
2018-05-03T14:34:45.771Z,95341
2018-05-03T14:37:16.307Z,95333
2018-05-03T14:39:47.037Z,95335
2018-05-03T14:42:17.671Z,95335
2018-05-03T14:44:48.409Z,95332
2018-05-03T14:47:19.500Z,95332
2018-05-03T14:49:50.392Z,95339
2018-05-03T14:52:20.963Z,95335
2018-05-03T14:54:51.596Z,95333
2018-05-03T14:57:22.255Z,95333
2018-05-03T14:59:53.006Z,95340
2018-05-03T15:02:23.900Z,95334
2018-05-03T15:04:55.037Z,95342
2018-05-03T15:07:25.753Z,95343
2018-05-03T15:10:02.161Z,95353
2018-05-03T15:12:33.052Z,95353
2018-05-03T15:15:07.165Z,95360
2018-05-03T15:17:38.159Z,95350
2018-05-03T15:20:08.833Z,95347
2018-05-03T15:22:41.927Z,95360
2018-05-03T15:25:13.750Z,95359
2018-05-03T15:27:44.354Z,95356
2018-05-03T15:30:15.055Z,95360
2018-05-03T15:32:45.612Z,95357
2018-05-03T15:35:17.760Z,95358
2018-05-03T15:37:50.803Z,95355
2018-05-03T15:40:23.025Z,95364
2018-05-03T15:42:55.984Z,95368
2018-05-03T15:45:26.600Z,95375
2018-05-03T15:47:57.478Z,95372
2018-05-03T15:50:28.722Z,95377
2018-05-03T15:52:59.457Z,95378
2018-05-03T15:55:30.196Z,95378
2018-05-03T15:58:00.860Z,95382
2018-05-03T16:00:31.438Z,95381
2018-05-03T16:03:02.176Z,95380
2018-05-03T16:05:32.794Z,95382
2018-05-03T16:08:03.673Z,95387
2018-05-03T16:10:34.762Z,95386
2018-05-03T16:13:07.029Z,95386
2018-05-03T16:15:38.661Z,95384
2018-05-03T16:18:10.252Z,95389
2018-05-03T16:20:41.756Z,95395
2018-05-03T16:23:12.726Z,95400
2018-05-03T16:25:44.477Z,95401
2018-05-03T16:28:16.449Z,95411
2018-05-03T16:30:48.601Z,95411
2018-05-03T16:33:22.238Z,95408
2018-05-03T16:35:55.013Z,95409
2018-05-03T16:38:27.439Z,95411
2018-05-03T16:40:58.394Z,95415
2018-05-03T16:43:29.637Z,95426
2018-05-03T16:46:01.749Z,95428
2018-05-03T16:48:32.461Z,95431
2018-05-03T16:51:04.657Z,95426
2018-05-03T16:53:41.072Z,95429
2018-05-03T16:56:11.692Z,95427
2018-05-03T16:58:42.363Z,95430
2018-05-03T17:01:13.005Z,95435
2018-05-03T17:03:43.649Z,95431
2018-05-03T17:06:14.356Z,95440
2018-05-03T17:08:45.131Z,95438
2018-05-03T17:11:15.889Z,95445
2018-05-03T17:13:47.136Z,95446
2018-05-03T17:16:17.834Z,95437
2018-05-03T17:18:48.660Z,95449
2018-05-03T17:21:19.331Z,95445
2018-05-03T17:23:49.965Z,95451
2018-05-03T17:26:20.800Z,95448
2018-05-03T17:28:51.638Z,95447
2018-05-03T17:31:22.692Z,95457
2018-05-03T17:33:53.619Z,95455
2018-05-03T17:36:24.475Z,95462
2018-05-03T17:38:55.434Z,95471
2018-05-03T17:41:26.801Z,95469
2018-05-03T17:43:58.764Z,95467
2018-05-03T17:46:29.538Z,95463
2018-05-03T17:49:00.220Z,95468
2018-05-03T17:51:30.962Z,95466
2018-05-03T17:54:02.372Z,95474
2018-05-03T17:56:33.179Z,95472
2018-05-03T17:59:05.080Z,95467
2018-05-03T18:01:35.933Z,95476
2018-05-03T18:04:11.717Z,95475
2018-05-03T18:06:43.651Z,95478
2018-05-03T18:09:15.395Z,95477
2018-05-03T18:11:49.536Z,95486
2018-05-03T18:14:20.665Z,95490
2018-05-03T18:16:51.724Z,95501
2018-05-03T18:19:22.343Z,95505
2018-05-03T18:21:53.229Z,95503
2018-05-03T18:24:23.990Z,95510
2018-05-03T18:26:54.938Z,95511
2018-05-03T18:29:26.314Z,95519
2018-05-03T18:31:57.113Z,95527
2018-05-03T18:34:28.497Z,95526
2018-05-03T18:36:59.969Z,95533
2018-05-03T18:39:32.343Z,95530
2018-05-03T18:42:03.609Z,95528
2018-05-03T18:44:35.555Z,95538
2018-05-03T18:47:06.687Z,95545
2018-05-03T18:49:38.051Z,95551
2018-05-03T18:52:10.366Z,95566
2018-05-03T18:54:41.837Z,95568
2018-05-03T18:57:13.595Z,95569
2018-05-03T18:59:45.547Z,95563
2018-05-03T19:02:16.743Z,95571
2018-05-03T19:04:53.722Z,95573
2018-05-03T19:07:27.324Z,95570
2018-05-03T19:09:58.863Z,95579
2018-05-03T19:12:31.027Z,95582
2018-05-03T19:15:02.474Z,95580
2018-05-03T19:17:35.203Z,95590
2018-05-03T19:20:06.405Z,95595
2018-05-03T19:22:37.387Z,95597
2018-05-03T19:25:09.696Z,95597
2018-05-03T19:27:40.746Z,95606
2018-05-03T19:30:12.422Z,95613
2018-05-03T19:32:44.517Z,95615
2018-05-03T19:35:16.354Z,95612
2018-05-03T19:37:47.665Z,95620
2018-05-03T19:40:19.549Z,95624
2018-05-03T19:42:50.834Z,95618
2018-05-03T19:45:23.198Z,95623
2018-05-03T19:47:54.663Z,95616
2018-05-03T19:50:26.831Z,95621
2018-05-03T19:53:03.655Z,95626
2018-05-03T19:55:35.373Z,95633
2018-05-03T19:58:07.139Z,95634
2018-05-03T20:00:44.187Z,95644
2018-05-03T20:03:17.522Z,95647
2018-05-03T20:05:49.558Z,95649
2018-05-03T20:08:22.233Z,95652
2018-05-03T20:10:53.815Z,95649
2018-05-03T20:13:25.090Z,95656
2018-05-03T20:15:56.578Z,95656
2018-05-03T20:18:28.400Z,95659
2018-05-03T20:20:59.676Z,95654
2018-05-03T20:23:31.660Z,95651
2018-05-03T20:26:02.827Z,95651
2018-05-03T20:28:34.293Z,95650
2018-05-03T20:31:05.755Z,95651
2018-05-03T20:33:37.011Z,95647
2018-05-03T20:36:08.853Z,95652
2018-05-03T20:38:40.598Z,95651
2018-05-03T20:41:11.809Z,95651
2018-05-03T20:43:43.622Z,95645
2018-05-03T20:46:15.174Z,95644
2018-05-03T20:48:46.324Z,95646
2018-05-03T20:51:17.510Z,95645
2018-05-03T20:53:48.776Z,95649
2018-05-03T20:56:19.920Z,95655
2018-05-03T20:58:51.140Z,95654
2018-05-03T21:01:22.852Z,95656
2018-05-03T21:03:54.781Z,95661
2018-05-03T21:06:26.001Z,95662
2018-05-03T21:08:57.033Z,95668
2018-05-03T21:11:28.916Z,95671
2018-05-03T21:14:00.120Z,95669
2018-05-03T21:16:31.688Z,95663
2018-05-03T21:19:04.542Z,95663
2018-05-03T21:21:35.997Z,95662
2018-05-03T21:24:07.761Z,95662
2018-05-03T21:26:39.028Z,95665
2018-05-03T21:29:10.253Z,95665
2018-05-03T21:31:40.913Z,95667
2018-05-03T21:34:11.697Z,95671
2018-05-03T21:36:42.501Z,95666
2018-05-03T21:39:13.413Z,95668
2018-05-03T21:41:44.026Z,95658
2018-05-03T21:44:14.977Z,95647
2018-05-03T21:46:45.651Z,95649
2018-05-03T21:49:16.432Z,95643
2018-05-03T21:51:47.474Z,95654
2018-05-03T21:57:41.151Z,95659
2018-05-03T22:00:17.621Z,95655
2018-05-03T22:02:49.044Z,95663
2018-05-03T22:05:19.613Z,95663
2018-05-03T22:07:50.454Z,95672
2018-05-03T22:10:21.040Z,95671
2018-05-03T22:12:51.771Z,95677
2018-05-03T22:15:22.592Z,95682
2018-05-03T22:17:53.500Z,95680
2018-05-03T22:20:24.292Z,95686
2018-05-03T22:22:55.320Z,95683
2018-05-03T22:25:26.101Z,95681
2018-05-03T22:27:56.929Z,95679
2018-05-03T22:30:27.811Z,95681
2018-05-03T22:32:58.571Z,95679
2018-05-03T22:35:29.370Z,95689
2018-05-03T22:38:00.101Z,95690
2018-05-03T22:40:31.017Z,95693
2018-05-03T22:43:02.117Z,95695
2018-05-03T22:45:32.952Z,95699
2018-05-03T22:48:03.689Z,95700
2018-05-03T22:50:34.416Z,95696
2018-05-03T22:53:05.275Z,95694
2018-05-03T22:55:35.886Z,95696
2018-05-03T22:58:06.936Z,95700
2018-05-03T23:00:37.635Z,95695
2018-05-03T23:03:08.844Z,95699
2018-05-03T23:05:40.026Z,95701
2018-05-03T23:08:10.917Z,95701
2018-05-03T23:10:41.823Z,95700
2018-05-03T23:13:13.046Z,95703
2018-05-03T23:15:44.705Z,95707
2018-05-03T23:18:15.473Z,95701
2018-05-03T23:20:46.422Z,95700
2018-05-03T23:23:17.122Z,95707
2018-05-03T23:25:47.781Z,95706
2018-05-03T23:28:18.536Z,95706
2018-05-03T23:30:49.212Z,95701
2018-05-03T23:33:19.801Z,95703
2018-05-03T23:35:50.738Z,95715
2018-05-03T23:38:21.349Z,95715
2018-05-03T23:40:52.207Z,95711
2018-05-03T23:43:22.875Z,95716
2018-05-03T23:45:53.591Z,95721
2018-05-03T23:48:24.163Z,95719
2018-05-03T23:50:55.096Z,95729
2018-05-03T23:53:25.972Z,95720
2018-05-03T23:55:56.812Z,95717
2018-05-03T23:58:27.579Z,95714
